Time;durP1;ratioP1;P1;durP2;ratioP2;P2;SDS_P1;SDS_P2;PMS_P1;PMS_P2;Temp;Humidity;BMP_temperature;BMP_pressure;BME280_temperature;BME280_humidity;BME280_pressure;Samples;Min_cycle;Max_cycle;Signal;HPM_P1;HPM_P2
2023/10/14 00:02:29;;;;;;;7.20;2.13;;;12.60;99.90;;;;;;5051481;28;20071;-62
2023/10/14 00:04:48;;;;;;;9.40;2.40;;;12.50;99.90;;;;;;5049091;28;20135;-62
2023/10/14 00:07:17;;;;;;;10.77;2.50;;;12.40;99.90;;;;;;5052147;28;20095;-63
2023/10/14 00:09:43;;;;;;;9.98;2.65;;;12.40;99.90;;;;;;5051366;28;20125;-63
2023/10/14 00:12:16;;;;;;;12.65;2.97;;;12.30;99.90;;;;;;5053396;28;20482;-63
2023/10/14 00:14:43;;;;;;;12.98;3.15;;;12.30;99.90;;;;;;5052104;28;20051;-63
2023/10/14 00:17:16;;;;;;;11.35;3.35;;;12.20;99.90;;;;;;5051641;28;20052;-63
2023/10/14 00:19:49;;;;;;;14.30;3.70;;;12.20;99.90;;;;;;5051988;28;20048;-62
2023/10/14 00:22:15;;;;;;;10.63;2.65;;;12.10;99.90;;;;;;5052012;28;20056;-63
2023/10/14 00:24:43;;;;;;;9.60;2.33;;;12.10;99.90;;;;;;5034600;28;20363;-62
2023/10/14 00:27:08;;;;;;;12.15;2.42;;;12.00;99.90;;;;;;5051984;28;20049;-63
2023/10/14 00:29:35;;;;;;;8.60;2.33;;;12.00;99.90;;;;;;5068284;28;20511;-63
2023/10/14 00:32:03;;;;;;;10.23;2.85;;;11.90;99.90;;;;;;5051196;28;20128;-63
2023/10/14 00:34:29;;;;;;;9.32;3.28;;;11.80;99.90;;;;;;5035025;28;20114;-63
2023/10/14 00:36:56;;;;;;;12.13;2.50;;;11.80;99.90;;;;;;5052297;28;20044;-63
2023/10/14 00:39:28;;;;;;;11.05;2.42;;;11.80;99.90;;;;;;5034351;28;20145;-62
2023/10/14 00:41:55;;;;;;;9.70;2.75;;;11.70;99.90;;;;;;5051881;28;20482;-62
2023/10/14 00:44:26;;;;;;;10.40;2.22;;;11.70;99.90;;;;;;5051369;28;20482;-63
2023/10/14 00:46:54;;;;;;;10.48;2.22;;;11.60;99.90;;;;;;5051965;28;20037;-63
2023/10/14 00:49:22;;;;;;;14.85;3.13;;;11.50;99.90;;;;;;5052639;28;20037;-62
2023/10/14 00:51:53;;;;;;;12.18;2.60;;;11.50;99.90;;;;;;5051048;28;20061;-63
2023/10/14 00:54:36;;;;;;;8.35;2.40;;;11.50;99.90;;;;;;5051208;28;20474;-63
2023/10/14 00:57:20;;;;;;;9.43;2.05;;;11.40;99.90;;;;;;5051916;28;20045;-63
2023/10/14 00:59:50;;;;;;;6.47;2.00;;;11.40;99.90;;;;;;5051875;28;20037;-63
2023/10/14 01:02:29;;;;;;;11.38;2.30;;;11.40;99.90;;;;;;5051199;28;20120;-63
2023/10/14 01:04:55;;;;;;;8.95;2.00;;;11.30;99.90;;;;;;5052931;28;20516;-62
2023/10/14 01:07:21;;;;;;;8.77;2.20;;;11.30;99.90;;;;;;5052961;28;20037;-62
2023/10/14 01:12:18;;;;;;;7.55;1.98;;;11.30;99.90;;;;;;5050907;28;20072;-63
2023/10/14 01:14:44;;;;;;;6.35;2.05;;;11.20;99.90;;;;;;5051774;28;20102;-63
2023/10/14 01:17:20;;;;;;;8.00;1.80;;;11.20;99.90;;;;;;5052238;28;20087;-63
2023/10/14 01:19:47;;;;;;;9.20;2.35;;;11.20;99.90;;;;;;5060712;28;20123;-63
2023/10/14 01:22:13;;;;;;;11.82;2.40;;;11.20;99.90;;;;;;5070391;28;20062;-63
2023/10/14 01:24:41;;;;;;;8.55;2.05;;;11.20;99.90;;;;;;5072161;28;20048;-62
2023/10/14 01:27:07;;;;;;;13.35;2.67;;;11.20;99.90;;;;;;5071180;28;20547;-63
2023/10/14 01:29:39;;;;;;;9.85;1.83;;;11.20;99.90;;;;;;5072082;28;20049;-63
2023/10/14 01:32:23;;;;;;;8.65;2.63;;;11.20;99.90;;;;;;5072391;28;20040;-62
2023/10/14 01:34:55;;;;;;;10.75;2.38;;;11.20;99.90;;;;;;5070094;28;20044;-63
2023/10/14 01:37:21;;;;;;;12.50;2.35;;;11.20;99.90;;;;;;5071992;28;20040;-63
2023/10/14 01:39:56;;;;;;;7.65;2.38;;;11.20;99.90;;;;;;5070558;28;20098;-63
2023/10/14 01:42:22;;;;;;;11.40;2.58;;;11.10;99.90;;;;;;5057120;28;20084;-63
2023/10/14 01:44:53;;;;;;;10.18;2.20;;;11.20;99.90;;;;;;5052080;28;20064;-62
2023/10/14 01:47:41;;;;;;;12.18;2.80;;;11.20;99.90;;;;;;5050483;28;20052;-63
2023/10/14 01:50:12;;;;;;;9.65;2.10;;;11.20;99.90;;;;;;5051776;28;20128;-63
2023/10/14 01:52:38;;;;;;;12.10;2.40;;;11.20;99.90;;;;;;5058863;28;20466;-62
2023/10/14 01:55:05;;;;;;;11.65;2.90;;;11.20;99.90;;;;;;5031763;28;20116;-63
2023/10/14 01:57:31;;;;;;;10.13;2.78;;;11.20;99.90;;;;;;5063942;28;20038;-63
2023/10/14 01:59:57;;;;;;;15.23;2.47;;;11.20;99.90;;;;;;5064252;28;20435;-63
2023/10/14 02:02:22;;;;;;;10.77;3.08;;;11.20;99.90;;;;;;5064313;28;20133;-63
2023/10/14 02:04:56;;;;;;;8.27;2.45;;;11.20;99.90;;;;;;5030508;28;20045;-63
2023/10/14 02:07:22;;;;;;;7.90;1.88;;;11.20;99.90;;;;;;5013976;28;20479;-63
2023/10/14 02:09:55;;;;;;;11.65;2.45;;;11.20;99.90;;;;;;5029586;28;20045;-63
2023/10/14 02:12:22;;;;;;;10.43;3.08;;;11.20;99.90;;;;;;5031927;28;20083;-63
2023/10/14 02:14:57;;;;;;;10.27;2.88;;;11.20;99.90;;;;;;5064987;28;20049;-63
2023/10/14 02:17:24;;;;;;;5.60;1.63;;;11.20;99.90;;;;;;5054345;28;20036;-63
2023/10/14 02:19:51;;;;;;;12.88;2.35;;;11.20;99.90;;;;;;5054283;28;20045;-63
2023/10/14 02:22:22;;;;;;;17.48;2.38;;;11.30;99.90;;;;;;5050620;28;20067;-63
2023/10/14 02:24:48;;;;;;;11.80;3.13;;;11.40;99.90;;;;;;5050822;28;20076;-63
2023/10/14 02:27:14;;;;;;;9.88;2.75;;;11.40;99.90;;;;;;5054182;28;20126;-63
2023/10/14 02:29:47;;;;;;;9.13;2.28;;;11.40;99.90;;;;;;5037279;28;20068;-63
2023/10/14 02:32:13;;;;;;;8.57;2.38;;;11.50;99.90;;;;;;5053605;28;20045;-63
2023/10/14 02:34:45;;;;;;;11.88;2.20;;;11.50;99.90;;;;;;5053837;28;20052;-63
2023/10/14 02:37:13;;;;;;;10.65;2.63;;;11.50;99.90;;;;;;5053077;28;20033;-63
2023/10/14 02:39:42;;;;;;;10.88;2.75;;;11.50;99.90;;;;;;5055153;28;20110;-63
2023/10/14 02:42:08;;;;;;;7.35;2.25;;;11.60;99.90;;;;;;5053991;28;20176;-63
2023/10/14 02:44:54;;;;;;;12.23;2.83;;;11.60;99.90;;;;;;5052951;28;20053;-63
2023/10/14 02:47:20;;;;;;;11.90;2.83;;;11.60;99.90;;;;;;5066741;28;20580;-62
2023/10/14 02:49:53;;;;;;;9.80;2.95;;;11.60;99.90;;;;;;5074972;28;20123;-63
2023/10/14 02:52:29;;;;;;;7.95;2.00;;;11.60;99.90;;;;;;5072173;28;20581;-63
2023/10/14 02:54:59;;;;;;;9.55;2.20;;;11.50;99.90;;;;;;5073415;28;20040;-62
2023/10/14 02:57:27;;;;;;;9.00;2.50;;;11.50;99.90;;;;;;5073600;28;20481;-63
2023/10/14 02:59:57;;;;;;;11.40;2.60;;;11.50;99.90;;;;;;5072717;28;20174;-62
2023/10/14 03:02:48;;;;;;;13.02;3.20;;;11.50;99.90;;;;;;5073753;28;20113;-63
2023/10/14 03:05:32;;;;;;;11.48;2.72;;;11.50;99.90;;;;;;5058301;28;20087;-62
2023/10/14 03:08:09;;;;;;;11.10;2.42;;;11.40;99.90;;;;;;5056599;28;20049;-63
2023/10/14 03:10:46;;;;;;;9.77;2.20;;;11.30;99.90;;;;;;5053056;28;20049;-63
2023/10/14 03:13:13;;;;;;;8.77;1.83;;;11.30;99.90;;;;;;5053869;28;20470;-63
2023/10/14 03:15:39;;;;;;;9.80;2.53;;;11.30;99.90;;;;;;5053103;28;20045;-63
2023/10/14 03:18:06;;;;;;;10.55;2.28;;;11.30;99.90;;;;;;5050613;28;20037;-63
2023/10/14 03:23:09;;;;;;;10.20;2.10;;;11.20;99.90;;;;;;5053545;28;20198;-63
2023/10/14 03:25:35;;;;;;;9.15;2.70;;;11.20;99.90;;;;;;5052769;28;20574;-62
2023/10/14 03:30:37;;;;;;;11.02;2.13;;;11.20;99.90;;;;;;5052782;28;20569;-63
2023/10/14 03:33:09;;;;;;;12.88;2.60;;;11.20;99.90;;;;;;5053493;28;20478;-63
2023/10/14 03:35:35;;;;;;;13.45;2.30;;;11.20;99.90;;;;;;5052026;28;20482;-63
2023/10/14 03:38:07;;;;;;;12.90;3.30;;;11.10;99.90;;;;;;5053131;28;20121;-63
2023/10/14 03:40:37;;;;;;;9.98;2.63;;;11.10;99.90;;;;;;5045322;28;20040;-63
2023/10/14 03:43:14;;;;;;;9.10;2.00;;;11.10;99.90;;;;;;5072579;28;20044;-63
2023/10/14 03:45:56;;;;;;;12.07;2.25;;;11.10;99.90;;;;;;5072697;28;20370;-63
2023/10/14 03:48:28;;;;;;;9.02;2.05;;;11.10;99.90;;;;;;5071056;28;20115;-63
2023/10/14 03:51:02;;;;;;;12.30;3.15;;;11.10;99.90;;;;;;5072285;28;20087;-63
2023/10/14 03:53:38;;;;;;;7.60;2.10;;;11.10;99.90;;;;;;5070473;28;20549;-63
2023/10/14 03:56:04;;;;;;;8.27;1.98;;;11.10;99.90;;;;;;5054730;28;20036;-63
2023/10/14 03:58:33;;;;;;;8.50;2.08;;;11.00;99.90;;;;;;5073479;28;20041;-63
2023/10/14 04:01:02;;;;;;;10.32;2.38;;;11.10;99.90;;;;;;5055903;28;20044;-63
2023/10/14 04:03:40;;;;;;;11.48;3.20;;;11.10;99.90;;;;;;5070055;28;20097;-63
2023/10/14 04:06:09;;;;;;;12.27;2.67;;;11.20;99.90;;;;;;5073625;28;20044;-64
2023/10/14 04:08:50;;;;;;;16.60;3.30;;;11.20;99.90;;;;;;5058980;28;20413;-64
2023/10/14 04:11:25;;;;;;;10.05;2.65;;;11.20;99.90;;;;;;5059292;28;20047;-64
2023/10/14 04:19:18;;;;;;;7.68;1.95;;;11.30;99.90;;;;;;5071846;28;20044;-64
2023/10/14 04:21:53;;;;;;;19.10;2.90;;;11.30;99.90;;;;;;5055519;28;20040;-64
2023/10/14 04:24:28;;;;;;;8.70;2.30;;;11.30;99.90;;;;;;5071227;28;20049;-63
2023/10/14 04:27:16;;;;;;;12.48;2.50;;;11.30;99.90;;;;;;5071626;28;20482;-64
2023/10/14 04:29:42;;;;;;;11.50;2.72;;;11.30;99.90;;;;;;5070853;28;20060;-63
2023/10/14 04:32:14;;;;;;;10.68;2.53;;;11.30;99.90;;;;;;5071558;28;20503;-65
2023/10/14 04:34:49;;;;;;;12.20;2.85;;;11.30;99.90;;;;;;5071603;28;20045;-63
2023/10/14 04:37:20;;;;;;;10.50;2.33;;;11.30;99.90;;;;;;5072152;28;20045;-64
2023/10/14 04:39:46;;;;;;;7.80;2.25;;;11.30;99.90;;;;;;5071832;28;20059;-64
2023/10/14 04:44:45;;;;;;;10.07;2.75;;;11.30;99.90;;;;;;5052011;28;20095;-64
2023/10/14 04:47:25;;;;;;;9.18;2.35;;;11.30;99.90;;;;;;5059683;28;20473;-64
2023/10/14 04:49:53;;;;;;;12.23;2.90;;;11.30;99.90;;;;;;5052215;28;20431;-64
2023/10/14 04:52:19;;;;;;;12.18;2.83;;;11.20;99.90;;;;;;5051781;28;20494;-64
2023/10/14 04:54:53;;;;;;;13.13;3.28;;;11.20;99.90;;;;;;5034706;28;20048;-64
2023/10/14 04:57:22;;;;;;;10.85;2.28;;;11.20;99.90;;;;;;5060812;28;20024;-64
2023/10/14 04:59:53;;;;;;;13.75;2.22;;;11.20;99.90;;;;;;5070248;28;20076;-64
2023/10/14 05:02:22;;;;;;;14.35;2.85;;;11.10;99.90;;;;;;5071431;28;20040;-64
2023/10/14 05:04:49;;;;;;;10.60;3.00;;;11.10;99.90;;;;;;5071849;28;20048;-64
2023/10/14 05:07:15;;;;;;;8.38;2.00;;;11.10;99.90;;;;;;5071015;28;20059;-64
2023/10/14 05:09:49;;;;;;;11.65;2.45;;;11.10;99.90;;;;;;5071076;28;20041;-64
2023/10/14 05:12:18;;;;;;;10.93;2.25;;;11.00;99.90;;;;;;5070872;28;20052;-64
2023/10/14 05:14:43;;;;;;;9.55;2.28;;;11.00;99.90;;;;;;5070976;28;20111;-63
2023/10/14 05:19:44;;;;;;;10.38;2.60;;;11.00;99.90;;;;;;5069567;28;20052;-63
2023/10/14 05:22:23;;;;;;;17.73;3.95;;;11.00;99.90;;;;;;5071155;28;20124;-63
2023/10/14 05:25:02;;;;;;;10.18;2.25;;;10.90;99.90;;;;;;5072276;28;20795;-64
2023/10/14 05:27:45;;;;;;;10.85;2.72;;;10.90;99.90;;;;;;5069281;28;20055;-64
2023/10/14 05:30:15;;;;;;;7.65;1.95;;;10.80;99.90;;;;;;5050661;28;20052;-64
2023/10/14 05:32:43;;;;;;;12.98;2.85;;;10.80;99.90;;;;;;5050708;28;20048;-64
2023/10/14 05:35:10;;;;;;;11.27;2.17;;;10.80;99.90;;;;;;5050091;28;20106;-64
2023/10/14 05:37:38;;;;;;;10.82;2.63;;;10.80;99.90;;;;;;5051031;28;20469;-63
2023/10/14 05:40:04;;;;;;;8.95;3.10;;;10.80;99.90;;;;;;5050350;28;20045;-63
2023/10/14 05:42:30;;;;;;;13.85;2.88;;;10.70;99.90;;;;;;5033619;28;20047;-63
2023/10/14 05:45:01;;;;;;;11.25;2.92;;;10.70;99.90;;;;;;5050954;28;20040;-63
2023/10/14 05:47:27;;;;;;;9.95;2.95;;;10.70;99.90;;;;;;5049884;28;20098;-63
2023/10/14 05:49:53;;;;;;;12.50;3.25;;;10.70;99.90;;;;;;5038944;28;20537;-63
2023/10/14 05:52:24;;;;;;;11.60;3.47;;;10.70;99.90;;;;;;5070468;28;20087;-64
2023/10/14 05:54:50;;;;;;;10.77;3.00;;;10.70;99.90;;;;;;5069946;28;20132;-66
2023/10/14 05:57:17;;;;;;;9.45;2.75;;;10.70;99.90;;;;;;5044875;28;20033;-66
2023/10/14 05:59:43;;;;;;;13.88;2.58;;;10.70;99.90;;;;;;5085260;28;20367;-66
2023/10/14 06:02:12;;;;;;;13.80;3.70;;;10.70;99.90;;;;;;5053962;28;20045;-66
2023/10/14 06:04:42;;;;;;;14.63;3.17;;;10.70;99.90;;;;;;5054429;28;20099;-66
2023/10/14 06:07:12;;;;;;;13.55;3.38;;;10.70;99.90;;;;;;5054585;28;20052;-66
2023/10/14 06:09:38;;;;;;;15.55;3.22;;;10.70;99.90;;;;;;5055219;28;20041;-66
2023/10/14 06:12:12;;;;;;;12.93;3.05;;;10.70;99.90;;;;;;5055805;28;20045;-66
2023/10/14 06:14:42;;;;;;;13.90;4.90;;;10.80;99.90;;;;;;5054531;28;20431;-65
2023/10/14 06:17:08;;;;;;;21.20;3.35;;;10.90;99.90;;;;;;5053797;28;20451;-65
2023/10/14 06:19:36;;;;;;;11.18;4.32;;;10.90;99.90;;;;;;5055413;28;20047;-65
2023/10/14 06:22:02;;;;;;;13.20;4.18;;;10.90;99.90;;;;;;5074330;28;20463;-65
2023/10/14 06:24:33;;;;;;;16.17;3.03;;;11.00;99.90;;;;;;5044088;28;20044;-65
2023/10/14 06:27:07;;;;;;;11.50;3.03;;;11.00;99.90;;;;;;5062513;28;20044;-65
2023/10/14 06:29:33;;;;;;;17.30;4.03;;;11.10;99.90;;;;;;5065630;28;20516;-65
2023/10/14 06:32:02;;;;;;;15.77;4.60;;;11.10;99.90;;;;;;5057491;28;20033;-65
2023/10/14 06:34:28;;;;;;;10.30;2.35;;;11.10;99.90;;;;;;5056143;28;20055;-66
2023/10/14 06:36:54;;;;;;;11.52;3.28;;;11.20;99.90;;;;;;5054675;28;20033;-64
2023/10/14 06:39:26;;;;;;;12.45;3.50;;;11.30;99.90;;;;;;5047062;28;20044;-65
2023/10/14 06:41:52;;;;;;;13.27;2.30;;;11.30;99.90;;;;;;5051431;28;20068;-66
2023/10/14 06:44:21;;;;;;;10.95;3.40;;;11.30;99.90;;;;;;5050702;28;20077;-66
2023/10/14 06:46:47;;;;;;;11.52;3.35;;;11.30;99.90;;;;;;5051741;28;20083;-65
2023/10/14 06:49:16;;;;;;;14.68;3.30;;;11.40;99.90;;;;;;5051114;28;20045;-66
2023/10/14 06:51:45;;;;;;;9.70;2.63;;;11.50;99.90;;;;;;5051142;28;20410;-66
2023/10/14 06:54:13;;;;;;;12.60;2.65;;;11.40;99.90;;;;;;5050533;28;20112;-66
2023/10/14 06:56:40;;;;;;;9.35;2.92;;;11.40;99.90;;;;;;5053549;28;20056;-66
2023/10/14 06:59:06;;;;;;;9.43;3.13;;;11.50;99.90;;;;;;5065225;28;20037;-65
2023/10/14 07:01:33;;;;;;;8.43;2.70;;;11.50;99.90;;;;;;5055859;28;20052;-66
2023/10/14 07:04:00;;;;;;;17.25;3.08;;;11.60;99.90;;;;;;5054123;28;20040;-66
2023/10/14 07:06:27;;;;;;;13.27;2.60;;;11.60;99.90;;;;;;5069955;28;20115;-65
2023/10/14 07:08:53;;;;;;;17.52;2.50;;;11.70;99.90;;;;;;5069352;28;20036;-65
2023/10/14 07:11:18;;;;;;;10.75;2.97;;;11.80;99.90;;;;;;5071068;28;20052;-65
2023/10/14 07:13:46;;;;;;;10.02;2.90;;;11.90;99.90;;;;;;5056486;28;20051;-65
2023/10/14 07:16:11;;;;;;;8.52;2.05;;;11.90;99.90;;;;;;5051981;28;20076;-65
2023/10/14 07:18:37;;;;;;;6.43;2.10;;;11.90;99.90;;;;;;5069619;28;20076;-65
2023/10/14 07:21:08;;;;;;;18.23;2.30;;;11.70;99.90;;;;;;5059673;28;20040;-65
2023/10/14 07:23:34;;;;;;;8.23;2.35;;;11.60;99.90;;;;;;5051085;28;20048;-65
2023/10/14 07:26:13;;;;;;;10.90;3.03;;;11.50;99.90;;;;;;5067963;28;20486;-65
2023/10/14 07:28:43;;;;;;;11.70;2.97;;;11.50;99.90;;;;;;5069800;28;20048;-65
2023/10/14 07:31:10;;;;;;;8.02;2.45;;;11.50;99.90;;;;;;5055691;28;20090;-65
2023/10/14 07:33:37;;;;;;;11.05;2.90;;;11.60;99.90;;;;;;5066553;28;20124;-65
2023/10/14 07:36:06;;;;;;;13.07;2.85;;;11.60;99.90;;;;;;5067019;28;20556;-66
2023/10/14 07:38:35;;;;;;;13.93;2.63;;;11.60;99.90;;;;;;5049828;28;20130;-66
2023/10/14 07:41:01;;;;;;;10.27;2.38;;;11.60;99.90;;;;;;5058834;28;20511;-66
2023/10/14 07:43:27;;;;;;;10.65;2.50;;;11.60;99.90;;;;;;5054541;28;20049;-64
2023/10/14 07:45:53;;;;;;;15.88;2.63;;;11.70;99.90;;;;;;5049319;28;20048;-64
2023/10/14 07:48:22;;;;;;;13.23;2.60;;;11.70;99.90;;;;;;5051316;28;20040;-64
2023/10/14 07:50:48;;;;;;;9.52;2.00;;;11.80;99.90;;;;;;5056187;28;20060;-64
2023/10/14 07:53:22;;;;;;;11.25;2.63;;;11.80;99.90;;;;;;5081042;28;20040;-63
2023/10/14 07:55:49;;;;;;;7.35;2.45;;;11.80;99.90;;;;;;5062836;28;20115;-63
2023/10/14 07:58:28;;;;;;;10.00;2.03;;;11.90;99.90;;;;;;5058318;28;20048;-65
2023/10/14 08:00:55;;;;;;;8.85;2.95;;;11.90;99.90;;;;;;5050115;28;20045;-64
2023/10/14 08:03:29;;;;;;;12.63;2.08;;;12.00;99.90;;;;;;5068252;28;20483;-66
2023/10/14 08:06:00;;;;;;;7.57;1.95;;;12.00;99.90;;;;;;5055901;28;20053;-66
2023/10/14 08:08:30;;;;;;;14.48;2.90;;;12.10;99.90;;;;;;5061458;28;20044;-66
2023/10/14 08:11:00;;;;;;;10.77;2.55;;;12.10;99.90;;;;;;5054336;28;20041;-66
2023/10/14 08:13:27;;;;;;;12.13;3.53;;;12.20;99.90;;;;;;5058280;28;20082;-66
2023/10/14 08:15:54;;;;;;;6.85;1.70;;;12.30;99.90;;;;;;5048276;28;20048;-66
2023/10/14 08:18:23;;;;;;;10.85;2.47;;;12.30;99.90;;;;;;5064061;28;20091;-66
2023/10/14 08:20:49;;;;;;;12.77;2.22;;;12.40;99.90;;;;;;5050295;28;20053;-66
2023/10/14 08:23:15;;;;;;;10.85;2.65;;;12.50;99.90;;;;;;5067168;28;20044;-65
2023/10/14 08:25:44;;;;;;;9.60;2.22;;;12.60;99.90;;;;;;5064219;28;20443;-65
2023/10/14 08:28:10;;;;;;;14.85;2.78;;;12.60;99.90;;;;;;5048437;28;20497;-65
2023/10/14 08:30:45;;;;;;;9.80;2.50;;;12.70;99.90;;;;;;5054399;28;20040;-66
2023/10/14 08:33:15;;;;;;;13.40;2.22;;;12.60;99.90;;;;;;5048570;28;20041;-64
2023/10/14 08:35:42;;;;;;;12.27;2.47;;;12.70;99.90;;;;;;5045558;28;20106;-64
2023/10/14 08:38:12;;;;;;;12.38;2.42;;;12.70;99.90;;;;;;5032197;28;20037;-64
2023/10/14 08:40:43;;;;;;;11.02;2.55;;;12.80;99.90;;;;;;5052451;28;20115;-65
2023/10/14 08:43:16;;;;;;;9.48;2.00;;;12.70;99.90;;;;;;5042343;28;20750;-63
2023/10/14 08:45:47;;;;;;;8.88;2.28;;;12.70;99.90;;;;;;5059559;28;20040;-63
2023/10/14 08:48:18;;;;;;;12.18;2.28;;;12.70;99.90;;;;;;5055004;28;20037;-64
2023/10/14 08:50:45;;;;;;;8.50;2.10;;;12.70;99.90;;;;;;5042923;28;20131;-64
2023/10/14 08:53:12;;;;;;;7.68;2.65;;;12.70;99.90;;;;;;5051363;28;20098;-64
2023/10/14 08:55:39;;;;;;;10.68;3.10;;;12.70;99.90;;;;;;5035999;28;20402;-66
2023/10/14 08:58:07;;;;;;;13.43;2.13;;;12.70;99.90;;;;;;5014568;28;20052;-66
2023/10/14 09:00:36;;;;;;;11.63;3.38;;;12.70;99.90;;;;;;5031481;28;20521;-66
2023/10/14 09:03:06;;;;;;;9.65;2.50;;;12.60;99.90;;;;;;5046357;28;20033;-66
2023/10/14 09:05:32;;;;;;;14.98;3.10;;;12.60;99.90;;;;;;5050420;28;20545;-65
2023/10/14 09:07:58;;;;;;;10.10;2.65;;;12.60;99.90;;;;;;5050811;28;20063;-66
2023/10/14 09:10:25;;;;;;;10.00;2.55;;;12.60;99.90;;;;;;5055244;28;20399;-66
2023/10/14 09:13:03;;;;;;;11.02;3.25;;;12.60;99.90;;;;;;5042625;28;20032;-66
2023/10/14 09:15:41;;;;;;;12.75;2.58;;;12.60;99.90;;;;;;5035669;28;20085;-66
2023/10/14 09:18:19;;;;;;;13.55;2.90;;;12.70;99.90;;;;;;5052037;28;20055;-65
2023/10/14 09:20:53;;;;;;;11.45;3.13;;;12.70;99.90;;;;;;5048191;28;20080;-64
2023/10/14 09:23:44;;;;;;;11.27;3.27;;;12.80;99.90;;;;;;5046362;28;20051;-65
2023/10/14 09:26:08;;;;;;;7.53;2.72;;;12.90;99.90;;;;;;5055638;28;20370;-65
2023/10/14 09:28:36;;;;;;;13.05;1.90;;;13.00;99.90;;;;;;5064490;28;20601;-66
2023/10/14 09:31:07;;;;;;;11.35;2.60;;;13.10;99.90;;;;;;5048084;28;20041;-65
2023/10/14 09:33:35;;;;;;;12.50;2.45;;;13.30;99.90;;;;;;5046739;28;20442;-66
2023/10/14 09:36:04;;;;;;;9.07;2.75;;;13.60;99.90;;;;;;5047344;28;20470;-65
2023/10/14 09:38:32;;;;;;;6.82;2.28;;;13.70;99.90;;;;;;5050679;28;20040;-66
2023/10/14 09:41:04;;;;;;;7.88;1.70;;;13.70;99.90;;;;;;5046263;28;20052;-63
2023/10/14 09:43:34;;;;;;;9.38;2.30;;;13.50;99.90;;;;;;5032622;28;20493;-67
2023/10/14 09:46:05;;;;;;;5.65;1.42;;;13.30;99.90;;;;;;5057468;28;20059;-66
2023/10/14 09:48:34;;;;;;;7.07;1.50;;;13.00;99.90;;;;;;5064653;28;20049;-66
2023/10/14 09:51:01;;;;;;;3.67;1.00;;;12.80;99.90;;;;;;5034302;28;20067;-66
2023/10/14 09:53:35;;;;;;;5.18;1.83;;;12.50;99.90;;;;;;5047098;28;20823;-66
2023/10/14 09:56:08;;;;;;;4.25;1.70;;;12.40;99.90;;;;;;5048384;28;20041;-66
2023/10/14 09:58:42;;;;;;;7.45;1.58;;;12.40;99.90;;;;;;5048826;28;20851;-66
2023/10/14 10:01:12;;;;;;;18.50;3.57;;;12.40;99.90;;;;;;5049147;28;20059;-66
2023/10/14 10:03:44;;;;;;;7.35;1.40;;;12.50;99.90;;;;;;5047796;28;20049;-68
2023/10/14 10:06:35;;;;;;;7.40;1.27;;;12.60;99.90;;;;;;5049661;28;20124;-65
2023/10/14 10:09:22;;;;;;;6.75;1.30;;;12.70;99.90;;;;;;5055118;28;20053;-66
2023/10/14 10:11:51;;;;;;;6.60;1.67;;;12.70;99.90;;;;;;5049005;28;20092;-66
2023/10/14 10:14:20;;;;;;;6.55;1.38;;;12.80;99.90;;;;;;5051092;28;20048;-66
2023/10/14 10:16:52;;;;;;;5.95;1.60;;;12.90;99.90;;;;;;5069990;28;20056;-66
2023/10/14 10:19:21;;;;;;;11.32;2.03;;;13.00;99.90;;;;;;5057155;28;20033;-67
2023/10/14 10:22:13;;;;;;;7.28;1.70;;;13.20;99.90;;;;;;5050022;28;20861;-68
2023/10/14 10:24:42;;;;;;;8.32;1.70;;;13.40;99.90;;;;;;5049392;28;20079;-68
2023/10/14 10:27:10;;;;;;;11.45;2.50;;;13.50;99.90;;;;;;5047933;28;20077;-66
2023/10/14 10:29:51;;;;;;;9.57;2.95;;;13.60;99.90;;;;;;5055262;28;20052;-66
2023/10/14 10:32:21;;;;;;;8.85;2.45;;;13.70;99.90;;;;;;5033578;28;20033;-65
2023/10/14 10:35:05;;;;;;;14.00;2.83;;;13.60;99.90;;;;;;5051139;28;20056;-66
2023/10/14 10:37:48;;;;;;;14.25;2.53;;;13.30;99.90;;;;;;5048821;28;20124;-66
2023/10/14 10:40:22;;;;;;;10.25;2.85;;;13.10;99.90;;;;;;5051348;28;20033;-66
2023/10/14 10:42:58;;;;;;;9.25;2.80;;;12.90;99.90;;;;;;5053880;28;20397;-65
2023/10/14 10:45:32;;;;;;;12.20;2.65;;;12.90;99.90;;;;;;5064189;28;20045;-65
2023/10/14 10:47:59;;;;;;;12.90;3.38;;;12.90;99.90;;;;;;5053748;28;20037;-65
2023/10/14 10:50:46;;;;;;;10.68;2.72;;;13.00;99.90;;;;;;5035854;28;20056;-66
2023/10/14 10:53:12;;;;;;;14.80;2.47;;;13.00;99.90;;;;;;5052911;28;20049;-66
2023/10/14 10:55:43;;;;;;;11.90;2.55;;;13.00;99.90;;;;;;5053530;28;20455;-65
2023/10/14 10:58:13;;;;;;;8.40;2.75;;;13.10;99.90;;;;;;5052874;28;20049;-65
2023/10/14 11:00:47;;;;;;;10.82;2.72;;;13.20;99.90;;;;;;5053243;28;20045;-65
2023/10/14 11:03:15;;;;;;;13.33;2.57;;;13.20;99.90;;;;;;5053307;28;20044;-65
2023/10/14 11:05:50;;;;;;;12.38;3.45;;;13.10;99.90;;;;;;5035781;28;20486;-65
2023/10/14 11:08:16;;;;;;;;;;;13.00;99.90;;;;;;5046906;28;20104;-65
2023/10/14 11:10:45;;;;;;;16.23;3.15;;;12.90;99.90;;;;;;5061011;28;20015;-65
2023/10/14 11:13:13;;;;;;;10.23;2.50;;;12.80;99.90;;;;;;5065670;28;20051;-65
2023/10/14 11:15:40;;;;;;;9.98;2.33;;;12.60;99.90;;;;;;5053442;28;20500;-65
2023/10/14 11:18:09;;;;;;;8.15;2.40;;;12.50;99.90;;;;;;5052683;28;20045;-65
2023/10/14 11:20:44;;;;;;;12.32;2.95;;;12.50;99.90;;;;;;5053367;28;20052;-65
2023/10/14 11:23:11;;;;;;;13.55;2.83;;;12.60;99.90;;;;;;5054007;28;20053;-65
2023/10/14 11:26:00;;;;;;;17.17;3.03;;;12.70;99.90;;;;;;5052390;28;20049;-65
2023/10/14 11:28:26;;;;;;;9.32;3.25;;;12.90;99.90;;;;;;5053394;28;20056;-65
2023/10/14 11:30:55;;;;;;;14.35;3.78;;;13.10;99.90;;;;;;5086528;28;20044;-65
2023/10/14 11:33:22;;;;;;;12.18;3.63;;;13.10;99.90;;;;;;5052174;28;20063;-65
2023/10/14 11:35:51;;;;;;;9.55;3.65;;;13.10;99.90;;;;;;5052873;28;20090;-65
2023/10/14 11:38:17;;;;;;;11.60;2.50;;;13.00;99.90;;;;;;5054103;28;20037;-67
2023/10/14 11:40:50;;;;;;;14.30;2.80;;;13.00;99.90;;;;;;5069032;28;20045;-67
2023/10/14 11:43:16;;;;;;;9.00;2.00;;;13.00;99.90;;;;;;5054073;28;20076;-67
2023/10/14 11:45:45;;;;;;;11.52;2.42;;;13.10;99.90;;;;;;5035110;28;20494;-67
2023/10/14 11:48:27;;;;;;;10.07;2.58;;;13.00;99.90;;;;;;5054047;28;20056;-66
2023/10/14 11:51:00;;;;;;;13.82;3.17;;;13.00;99.90;;;;;;5040879;28;20064;-67
2023/10/14 11:53:28;;;;;;;11.82;2.53;;;13.10;99.90;;;;;;5054644;28;20056;-67
2023/10/14 11:55:58;;;;;;;14.90;2.40;;;13.10;99.90;;;;;;5056985;28;20028;-67
2023/10/14 11:58:28;;;;;;;12.45;3.28;;;13.20;99.90;;;;;;5051187;28;20044;-67
2023/10/14 12:00:54;;;;;;;7.93;2.10;;;13.20;99.90;;;;;;5051704;28;20091;-67
2023/10/14 12:03:19;;;;;;;8.43;1.98;;;13.20;99.90;;;;;;5052344;28;20123;-67
2023/10/14 12:05:45;;;;;;;9.15;2.00;;;13.20;99.90;;;;;;5052547;28;20140;-67
2023/10/14 12:08:11;;;;;;;5.68;1.90;;;13.20;99.90;;;;;;5051539;28;20051;-67
2023/10/14 12:10:36;;;;;;;6.50;1.67;;;13.20;99.40;;;;;;5053458;28;20041;-65
2023/10/14 12:13:03;;;;;;;10.13;2.40;;;13.20;99.90;;;;;;5055343;28;20044;-64
2023/10/14 12:15:35;;;;;;;8.55;2.15;;;13.30;99.60;;;;;;5071071;28;20085;-63
2023/10/14 12:18:01;;;;;;;10.90;2.13;;;13.30;99.90;;;;;;5064391;28;20047;-63
2023/10/14 12:20:29;;;;;;;8.48;2.08;;;13.30;99.90;;;;;;5054427;28;20051;-64
2023/10/14 12:22:55;;;;;;;8.70;2.30;;;13.30;99.90;;;;;;5050186;28;20505;-64
2023/10/14 12:25:21;;;;;;;11.48;2.80;;;13.30;99.90;;;;;;5051509;28;20126;-64
2023/10/14 12:27:48;;;;;;;9.65;2.30;;;13.20;99.90;;;;;;5056115;28;20520;-64
2023/10/14 12:33:04;;;;;;;12.52;2.83;;;13.10;99.90;;;;;;5055136;28;20079;-65
2023/10/14 12:35:32;;;;;;;5.95;1.95;;;13.00;99.90;;;;;;5056003;28;20041;-65
2023/10/14 12:37:59;;;;;;;10.88;2.33;;;12.90;99.90;;;;;;5053174;28;20371;-65
2023/10/14 12:40:27;;;;;;;8.38;2.22;;;12.80;99.90;;;;;;5051527;28;20044;-65
2023/10/14 12:43:00;;;;;;;10.18;2.28;;;12.70;99.90;;;;;;5050506;28;20048;-65
2023/10/14 12:45:27;;;;;;;7.63;1.90;;;12.70;99.90;;;;;;5028563;28;20056;-65
2023/10/14 12:47:56;;;;;;;7.53;1.85;;;12.70;99.90;;;;;;5031986;28;20048;-65
2023/10/14 12:50:22;;;;;;;8.35;2.50;;;12.80;99.90;;;;;;5047821;28;20485;-65
2023/10/14 12:53:00;;;;;;;10.77;2.92;;;12.90;99.90;;;;;;5047561;28;20048;-65
2023/10/14 12:55:26;;;;;;;6.57;2.28;;;12.90;99.90;;;;;;5047898;28;20490;-65
2023/10/14 12:57:54;;;;;;;10.70;2.40;;;12.80;99.90;;;;;;5047343;28;20047;-65
2023/10/14 13:00:25;;;;;;;8.20;2.03;;;12.80;99.90;;;;;;5067947;28;20120;-65
2023/10/14 13:02:55;;;;;;;11.38;2.78;;;12.80;99.90;;;;;;5050653;28;20041;-65
2023/10/14 13:05:22;;;;;;;16.25;2.65;;;12.80;99.90;;;;;;5083407;28;20066;-65
2023/10/14 13:07:52;;;;;;;6.40;1.70;;;12.90;99.90;;;;;;5049034;28;20041;-65
2023/10/14 13:10:18;;;;;;;8.65;2.22;;;12.90;99.90;;;;;;5066958;28;20417;-65
2023/10/14 13:12:51;;;;;;;6.13;1.85;;;13.00;99.90;;;;;;5065963;28;20094;-65
2023/10/14 13:15:25;;;;;;;6.95;1.98;;;13.20;99.40;;;;;;5067642;28;20490;-65
2023/10/14 13:17:56;;;;;;;7.13;2.30;;;13.30;99.70;;;;;;5066959;28;20151;-65